sensor_id;sensor_type;location;lat;lon;timestamp;P1;durP1;ratioP1;P2;durP2;ratioP2
14326;SDS011;7247;53.330;-1.180;2023-03-21T00:00:38;10.53;;;8.17;;
14326;SDS011;7247;53.330;-1.180;2023-03-21T00:03:04;9.53;;;8.60;;
14326;SDS011;7247;53.330;-1.180;2023-03-21T00:05:31;9.47;;;8.47;;
14326;SDS011;7247;53.330;-1.180;2023-03-21T00:07:57;9.47;;;8.33;;
14326;SDS011;7247;53.330;-1.180;2023-03-21T00:10:24;9.80;;;8.80;;
14326;SDS011;7247;53.330;-1.180;2023-03-21T00:12:50;11.10;;;9.80;;
14326;SDS011;7247;53.330;-1.180;2023-03-21T00:15:22;12.23;;;10.47;;
14326;SDS011;7247;53.330;-1.180;2023-03-21T00:17:51;12.97;;;10.93;;
14326;SDS011;7247;53.330;-1.180;2023-03-21T00:20:22;13.40;;;9.97;;
14326;SDS011;7247;53.330;-1.180;2023-03-21T00:22:48;10.80;;;9.70;;
14326;SDS011;7247;53.330;-1.180;2023-03-21T00:25:16;11.23;;;9.93;;
14326;SDS011;7247;53.330;-1.180;2023-03-21T00:27:42;12.10;;;9.17;;
14326;SDS011;7247;53.330;-1.180;2023-03-21T00:30:09;10.83;;;9.27;;
14326;SDS011;7247;53.330;-1.180;2023-03-21T00:32:36;11.63;;;8.60;;
14326;SDS011;7247;53.330;-1.180;2023-03-21T00:35:04;10.37;;;8.23;;
14326;SDS011;7247;53.330;-1.180;2023-03-21T00:37:31;12.37;;;8.43;;
14326;SDS011;7247;53.330;-1.180;2023-03-21T00:39:57;10.03;;;8.23;;
14326;SDS011;7247;53.330;-1.180;2023-03-21T00:42:23;9.70;;;7.50;;
14326;SDS011;7247;53.330;-1.180;2023-03-21T00:44:50;9.40;;;7.90;;
14326;SDS011;7247;53.330;-1.180;2023-03-21T00:47:16;10.53;;;8.03;;
14326;SDS011;7247;53.330;-1.180;2023-03-21T00:49:43;11.63;;;8.73;;
14326;SDS011;7247;53.330;-1.180;2023-03-21T00:52:11;13.40;;;9.17;;
14326;SDS011;7247;53.330;-1.180;2023-03-21T00:54:37;10.50;;;8.57;;
14326;SDS011;7247;53.330;-1.180;2023-03-21T00:57:04;14.73;;;9.70;;
14326;SDS011;7247;53.330;-1.180;2023-03-21T00:59:30;13.03;;;9.23;;
14326;SDS011;7247;53.330;-1.180;2023-03-21T01:01:56;15.23;;;9.17;;
14326;SDS011;7247;53.330;-1.180;2023-03-21T01:04:24;13.80;;;9.63;;
14326;SDS011;7247;53.330;-1.180;2023-03-21T01:06:51;12.77;;;8.77;;
14326;SDS011;7247;53.330;-1.180;2023-03-21T01:09:20;14.63;;;9.27;;
14326;SDS011;7247;53.330;-1.180;2023-03-21T01:11:47;14.23;;;9.53;;
14326;SDS011;7247;53.330;-1.180;2023-03-21T01:14:15;11.63;;;8.27;;
14326;SDS011;7247;53.330;-1.180;2023-03-21T01:16:42;12.77;;;8.57;;
14326;SDS011;7247;53.330;-1.180;2023-03-21T01:19:10;13.87;;;8.70;;
14326;SDS011;7247;53.330;-1.180;2023-03-21T01:21:37;13.70;;;8.40;;
14326;SDS011;7247;53.330;-1.180;2023-03-21T01:24:03;10.50;;;8.13;;
14326;SDS011;7247;53.330;-1.180;2023-03-21T01:26:31;12.47;;;8.07;;
14326;SDS011;7247;53.330;-1.180;2023-03-21T01:28:58;12.53;;;8.03;;
14326;SDS011;7247;53.330;-1.180;2023-03-21T01:31:24;10.80;;;7.33;;
14326;SDS011;7247;53.330;-1.180;2023-03-21T01:33:51;10.90;;;7.27;;
14326;SDS011;7247;53.330;-1.180;2023-03-21T01:36:17;9.63;;;6.93;;
14326;SDS011;7247;53.330;-1.180;2023-03-21T01:38:45;12.40;;;7.23;;
14326;SDS011;7247;53.330;-1.180;2023-03-21T01:41:15;11.60;;;7.57;;
14326;SDS011;7247;53.330;-1.180;2023-03-21T01:43:45;12.87;;;7.30;;
14326;SDS011;7247;53.330;-1.180;2023-03-21T01:46:21;10.23;;;7.37;;
14326;SDS011;7247;53.330;-1.180;2023-03-21T01:48:52;14.27;;;7.30;;
14326;SDS011;7247;53.330;-1.180;2023-03-21T01:51:19;12.13;;;6.90;;
14326;SDS011;7247;53.330;-1.180;2023-03-21T01:53:46;7.90;;;6.03;;
14326;SDS011;7247;53.330;-1.180;2023-03-21T01:56:15;11.57;;;7.00;;
14326;SDS011;7247;53.330;-1.180;2023-03-21T01:58:44;8.30;;;6.50;;
14326;SDS011;7247;53.330;-1.180;2023-03-21T02:01:11;9.83;;;6.73;;
14326;SDS011;7247;53.330;-1.180;2023-03-21T02:03:40;9.03;;;6.20;;
14326;SDS011;7247;53.330;-1.180;2023-03-21T02:06:15;9.23;;;5.87;;
14326;SDS011;7247;53.330;-1.180;2023-03-21T02:08:43;8.40;;;5.63;;
14326;SDS011;7247;53.330;-1.180;2023-03-21T02:11:10;8.90;;;5.43;;
14326;SDS011;7247;53.330;-1.180;2023-03-21T02:13:37;7.67;;;5.27;;
14326;SDS011;7247;53.330;-1.180;2023-03-21T02:16:08;9.87;;;5.70;;
14326;SDS011;7247;53.330;-1.180;2023-03-21T02:18:38;8.63;;;5.40;;
14326;SDS011;7247;53.330;-1.180;2023-03-21T02:24:00;8.93;;;5.73;;
14326;SDS011;7247;53.330;-1.180;2023-03-21T02:26:43;8.07;;;5.10;;
14326;SDS011;7247;53.330;-1.180;2023-03-21T02:29:14;7.20;;;4.97;;
14326;SDS011;7247;53.330;-1.180;2023-03-21T02:31:49;5.77;;;4.60;;
14326;SDS011;7247;53.330;-1.180;2023-03-21T02:34:35;8.87;;;4.93;;
14326;SDS011;7247;53.330;-1.180;2023-03-21T02:37:08;5.80;;;4.37;;
14326;SDS011;7247;53.330;-1.180;2023-03-21T02:39:40;5.90;;;4.20;;
14326;SDS011;7247;53.330;-1.180;2023-03-21T02:42:08;7.67;;;4.00;;
14326;SDS011;7247;53.330;-1.180;2023-03-21T02:44:39;7.60;;;4.23;;
14326;SDS011;7247;53.330;-1.180;2023-03-21T02:47:07;6.40;;;4.00;;
14326;SDS011;7247;53.330;-1.180;2023-03-21T02:49:34;5.07;;;3.90;;
14326;SDS011;7247;53.330;-1.180;2023-03-21T02:52:04;5.50;;;4.10;;
14326;SDS011;7247;53.330;-1.180;2023-03-21T02:54:37;7.17;;;4.03;;
14326;SDS011;7247;53.330;-1.180;2023-03-21T02:57:05;5.50;;;3.57;;
14326;SDS011;7247;53.330;-1.180;2023-03-21T02:59:32;5.57;;;3.60;;
14326;SDS011;7247;53.330;-1.180;2023-03-21T03:01:59;4.03;;;3.63;;
14326;SDS011;7247;53.330;-1.180;2023-03-21T03:04:26;5.83;;;3.60;;
14326;SDS011;7247;53.330;-1.180;2023-03-21T03:07:01;5.97;;;3.70;;
14326;SDS011;7247;53.330;-1.180;2023-03-21T03:09:29;6.10;;;4.23;;
14326;SDS011;7247;53.330;-1.180;2023-03-21T03:12:04;7.30;;;3.97;;
14326;SDS011;7247;53.330;-1.180;2023-03-21T03:14:38;4.93;;;3.43;;
14326;SDS011;7247;53.330;-1.180;2023-03-21T03:17:14;4.30;;;3.20;;
14326;SDS011;7247;53.330;-1.180;2023-03-21T03:19:46;3.93;;;3.10;;
14326;SDS011;7247;53.330;-1.180;2023-03-21T03:22:16;4.10;;;3.00;;
14326;SDS011;7247;53.330;-1.180;2023-03-21T03:24:45;4.13;;;3.23;;
14326;SDS011;7247;53.330;-1.180;2023-03-21T03:27:14;3.33;;;2.93;;
14326;SDS011;7247;53.330;-1.180;2023-03-21T03:29:41;5.03;;;3.20;;
14326;SDS011;7247;53.330;-1.180;2023-03-21T03:32:10;6.07;;;3.40;;
14326;SDS011;7247;53.330;-1.180;2023-03-21T03:34:38;4.67;;;3.37;;
14326;SDS011;7247;53.330;-1.180;2023-03-21T03:37:06;4.17;;;3.20;;
14326;SDS011;7247;53.330;-1.180;2023-03-21T03:39:34;5.40;;;3.67;;
14326;SDS011;7247;53.330;-1.180;2023-03-21T03:42:02;5.07;;;3.53;;
14326;SDS011;7247;53.330;-1.180;2023-03-21T03:44:32;4.90;;;3.50;;
14326;SDS011;7247;53.330;-1.180;2023-03-21T03:47:00;6.33;;;4.20;;
14326;SDS011;7247;53.330;-1.180;2023-03-21T03:49:28;5.67;;;4.07;;
14326;SDS011;7247;53.330;-1.180;2023-03-21T03:51:57;5.90;;;4.03;;
14326;SDS011;7247;53.330;-1.180;2023-03-21T03:54:26;6.20;;;4.03;;
14326;SDS011;7247;53.330;-1.180;2023-03-21T03:56:53;4.53;;;4.00;;
14326;SDS011;7247;53.330;-1.180;2023-03-21T03:59:20;7.80;;;4.27;;
14326;SDS011;7247;53.330;-1.180;2023-03-21T04:01:48;5.17;;;4.47;;
14326;SDS011;7247;53.330;-1.180;2023-03-21T04:04:15;5.67;;;4.13;;
14326;SDS011;7247;53.330;-1.180;2023-03-21T04:06:41;8.00;;;4.80;;
14326;SDS011;7247;53.330;-1.180;2023-03-21T04:09:09;9.93;;;4.63;;
14326;SDS011;7247;53.330;-1.180;2023-03-21T04:11:36;8.60;;;5.00;;
14326;SDS011;7247;53.330;-1.180;2023-03-21T04:14:02;9.43;;;4.87;;
14326;SDS011;7247;53.330;-1.180;2023-03-21T04:16:28;6.03;;;4.70;;
14326;SDS011;7247;53.330;-1.180;2023-03-21T04:18:57;11.80;;;5.57;;
14326;SDS011;7247;53.330;-1.180;2023-03-21T04:21:23;7.17;;;4.53;;
14326;SDS011;7247;53.330;-1.180;2023-03-21T04:23:51;7.27;;;5.03;;
14326;SDS011;7247;53.330;-1.180;2023-03-21T04:26:19;10.87;;;5.33;;
14326;SDS011;7247;53.330;-1.180;2023-03-21T04:28:45;9.63;;;5.30;;
14326;SDS011;7247;53.330;-1.180;2023-03-21T04:31:11;8.47;;;5.60;;
14326;SDS011;7247;53.330;-1.180;2023-03-21T04:33:38;7.13;;;5.10;;
14326;SDS011;7247;53.330;-1.180;2023-03-21T04:36:06;8.00;;;5.10;;
14326;SDS011;7247;53.330;-1.180;2023-03-21T04:38:33;6.27;;;4.73;;
14326;SDS011;7247;53.330;-1.180;2023-03-21T04:41:00;8.60;;;4.77;;
14326;SDS011;7247;53.330;-1.180;2023-03-21T04:43:26;8.83;;;5.30;;
14326;SDS011;7247;53.330;-1.180;2023-03-21T04:45:53;8.23;;;4.83;;
14326;SDS011;7247;53.330;-1.180;2023-03-21T04:48:20;10.23;;;5.53;;
14326;SDS011;7247;53.330;-1.180;2023-03-21T04:50:48;6.60;;;4.80;;
14326;SDS011;7247;53.330;-1.180;2023-03-21T04:53:16;7.67;;;4.80;;
14326;SDS011;7247;53.330;-1.180;2023-03-21T04:55:43;7.30;;;4.77;;
14326;SDS011;7247;53.330;-1.180;2023-03-21T04:58:09;6.83;;;4.67;;
14326;SDS011;7247;53.330;-1.180;2023-03-21T05:00:36;8.30;;;5.07;;
14326;SDS011;7247;53.330;-1.180;2023-03-21T05:03:03;12.63;;;5.70;;
14326;SDS011;7247;53.330;-1.180;2023-03-21T05:05:33;7.93;;;5.67;;
14326;SDS011;7247;53.330;-1.180;2023-03-21T05:07:59;11.27;;;5.67;;
14326;SDS011;7247;53.330;-1.180;2023-03-21T05:10:27;8.10;;;5.50;;
14326;SDS011;7247;53.330;-1.180;2023-03-21T05:12:53;9.80;;;5.83;;
14326;SDS011;7247;53.330;-1.180;2023-03-21T05:15:19;7.63;;;5.27;;
14326;SDS011;7247;53.330;-1.180;2023-03-21T05:17:46;9.33;;;5.27;;
14326;SDS011;7247;53.330;-1.180;2023-03-21T05:20:13;8.83;;;5.13;;
14326;SDS011;7247;53.330;-1.180;2023-03-21T05:22:41;9.30;;;4.77;;
14326;SDS011;7247;53.330;-1.180;2023-03-21T05:25:10;8.70;;;5.20;;
14326;SDS011;7247;53.330;-1.180;2023-03-21T05:27:38;8.63;;;5.43;;
14326;SDS011;7247;53.330;-1.180;2023-03-21T05:30:09;6.90;;;5.20;;
14326;SDS011;7247;53.330;-1.180;2023-03-21T05:32:36;9.30;;;5.50;;
14326;SDS011;7247;53.330;-1.180;2023-03-21T05:35:03;9.27;;;5.73;;
14326;SDS011;7247;53.330;-1.180;2023-03-21T05:37:29;6.03;;;5.27;;
14326;SDS011;7247;53.330;-1.180;2023-03-21T05:39:55;9.00;;;5.73;;
14326;SDS011;7247;53.330;-1.180;2023-03-21T05:42:22;6.80;;;6.03;;
14326;SDS011;7247;53.330;-1.180;2023-03-21T05:44:50;9.80;;;6.33;;
14326;SDS011;7247;53.330;-1.180;2023-03-21T05:47:17;7.03;;;5.77;;
14326;SDS011;7247;53.330;-1.180;2023-03-21T05:49:43;10.20;;;6.20;;
14326;SDS011;7247;53.330;-1.180;2023-03-21T05:52:11;8.83;;;5.63;;
14326;SDS011;7247;53.330;-1.180;2023-03-21T05:54:37;11.10;;;5.90;;
14326;SDS011;7247;53.330;-1.180;2023-03-21T05:57:04;7.97;;;6.37;;
14326;SDS011;7247;53.330;-1.180;2023-03-21T05:59:30;7.27;;;6.10;;
14326;SDS011;7247;53.330;-1.180;2023-03-21T06:01:58;8.17;;;5.60;;
14326;SDS011;7247;53.330;-1.180;2023-03-21T06:04:24;6.30;;;5.67;;
14326;SDS011;7247;53.330;-1.180;2023-03-21T06:06:51;10.10;;;6.17;;
14326;SDS011;7247;53.330;-1.180;2023-03-21T06:09:17;8.60;;;6.23;;
14326;SDS011;7247;53.330;-1.180;2023-03-21T06:11:45;10.70;;;7.03;;
14326;SDS011;7247;53.330;-1.180;2023-03-21T06:14:12;8.93;;;6.30;;
14326;SDS011;7247;53.330;-1.180;2023-03-21T06:16:38;7.67;;;6.60;;
14326;SDS011;7247;53.330;-1.180;2023-03-21T06:19:06;9.87;;;6.87;;
14326;SDS011;7247;53.330;-1.180;2023-03-21T06:21:33;7.53;;;6.73;;
14326;SDS011;7247;53.330;-1.180;2023-03-21T06:23:59;7.63;;;6.70;;
14326;SDS011;7247;53.330;-1.180;2023-03-21T06:26:25;8.40;;;6.53;;
14326;SDS011;7247;53.330;-1.180;2023-03-21T06:28:52;7.83;;;6.53;;
14326;SDS011;7247;53.330;-1.180;2023-03-21T06:31:19;9.03;;;6.97;;
14326;SDS011;7247;53.330;-1.180;2023-03-21T06:33:46;10.47;;;6.43;;
14326;SDS011;7247;53.330;-1.180;2023-03-21T06:36:14;8.93;;;6.10;;
14326;SDS011;7247;53.330;-1.180;2023-03-21T06:38:40;9.67;;;7.13;;
14326;SDS011;7247;53.330;-1.180;2023-03-21T06:41:07;10.20;;;6.30;;
14326;SDS011;7247;53.330;-1.180;2023-03-21T06:43:33;8.93;;;6.33;;
14326;SDS011;7247;53.330;-1.180;2023-03-21T06:46:00;8.07;;;6.60;;
14326;SDS011;7247;53.330;-1.180;2023-03-21T06:48:26;10.83;;;6.40;;
14326;SDS011;7247;53.330;-1.180;2023-03-21T06:50:53;10.33;;;6.20;;
14326;SDS011;7247;53.330;-1.180;2023-03-21T06:53:22;8.03;;;6.07;;
14326;SDS011;7247;53.330;-1.180;2023-03-21T06:55:51;7.97;;;5.83;;
14326;SDS011;7247;53.330;-1.180;2023-03-21T06:58:18;6.87;;;5.33;;
14326;SDS011;7247;53.330;-1.180;2023-03-21T07:00:44;8.97;;;5.13;;
14326;SDS011;7247;53.330;-1.180;2023-03-21T07:03:11;5.63;;;4.60;;
14326;SDS011;7247;53.330;-1.180;2023-03-21T07:05:37;6.07;;;4.70;;
14326;SDS011;7247;53.330;-1.180;2023-03-21T07:08:04;6.33;;;4.40;;
14326;SDS011;7247;53.330;-1.180;2023-03-21T07:10:32;8.03;;;4.57;;
14326;SDS011;7247;53.330;-1.180;2023-03-21T07:12:59;5.80;;;4.40;;
14326;SDS011;7247;53.330;-1.180;2023-03-21T07:15:25;5.07;;;4.00;;
14326;SDS011;7247;53.330;-1.180;2023-03-21T07:17:51;6.53;;;3.80;;
14326;SDS011;7247;53.330;-1.180;2023-03-21T07:20:18;5.10;;;3.50;;
14326;SDS011;7247;53.330;-1.180;2023-03-21T07:22:44;4.23;;;3.30;;
14326;SDS011;7247;53.330;-1.180;2023-03-21T07:25:11;5.13;;;3.23;;
14326;SDS011;7247;53.330;-1.180;2023-03-21T07:27:39;6.67;;;2.90;;
14326;SDS011;7247;53.330;-1.180;2023-03-21T07:30:06;4.37;;;3.03;;
14326;SDS011;7247;53.330;-1.180;2023-03-21T07:32:33;4.37;;;2.90;;
14326;SDS011;7247;53.330;-1.180;2023-03-21T07:35:01;3.53;;;2.80;;
14326;SDS011;7247;53.330;-1.180;2023-03-21T07:37:28;4.00;;;2.60;;
14326;SDS011;7247;53.330;-1.180;2023-03-21T07:39:54;3.90;;;3.00;;
14326;SDS011;7247;53.330;-1.180;2023-03-21T07:42:21;2.73;;;2.47;;
14326;SDS011;7247;53.330;-1.180;2023-03-21T07:44:48;5.47;;;2.63;;
14326;SDS011;7247;53.330;-1.180;2023-03-21T07:47:16;3.93;;;2.50;;
14326;SDS011;7247;53.330;-1.180;2023-03-21T07:49:43;3.90;;;2.63;;
14326;SDS011;7247;53.330;-1.180;2023-03-21T07:52:09;4.67;;;2.50;;
14326;SDS011;7247;53.330;-1.180;2023-03-21T07:54:36;3.47;;;2.50;;
14326;SDS011;7247;53.330;-1.180;2023-03-21T07:57:02;4.70;;;2.30;;
14326;SDS011;7247;53.330;-1.180;2023-03-21T07:59:28;3.77;;;2.77;;
14326;SDS011;7247;53.330;-1.180;2023-03-21T08:01:56;3.40;;;2.23;;
14326;SDS011;7247;53.330;-1.180;2023-03-21T08:04:23;4.97;;;2.40;;
14326;SDS011;7247;53.330;-1.180;2023-03-21T08:06:50;4.33;;;2.30;;
14326;SDS011;7247;53.330;-1.180;2023-03-21T08:09:16;3.87;;;2.10;;
14326;SDS011;7247;53.330;-1.180;2023-03-21T08:11:42;2.97;;;2.17;;
14326;SDS011;7247;53.330;-1.180;2023-03-21T08:14:09;4.23;;;2.30;;
14326;SDS011;7247;53.330;-1.180;2023-03-21T08:16:35;2.93;;;2.03;;
14326;SDS011;7247;53.330;-1.180;2023-03-21T08:19:03;3.97;;;2.53;;
14326;SDS011;7247;53.330;-1.180;2023-03-21T08:21:29;6.07;;;2.30;;
14326;SDS011;7247;53.330;-1.180;2023-03-21T08:23:56;3.80;;;2.37;;
14326;SDS011;7247;53.330;-1.180;2023-03-21T08:26:22;5.77;;;2.37;;
14326;SDS011;7247;53.330;-1.180;2023-03-21T08:28:50;4.73;;;2.30;;
14326;SDS011;7247;53.330;-1.180;2023-03-21T08:31:17;4.30;;;2.17;;
14326;SDS011;7247;53.330;-1.180;2023-03-21T08:33:45;5.37;;;2.30;;
14326;SDS011;7247;53.330;-1.180;2023-03-21T08:36:16;6.10;;;2.43;;
14326;SDS011;7247;53.330;-1.180;2023-03-21T08:38:42;5.67;;;2.47;;
14326;SDS011;7247;53.330;-1.180;2023-03-21T08:41:10;5.47;;;2.50;;
14326;SDS011;7247;53.330;-1.180;2023-03-21T08:43:36;5.83;;;2.20;;
14326;SDS011;7247;53.330;-1.180;2023-03-21T08:46:03;4.57;;;2.10;;
14326;SDS011;7247;53.330;-1.180;2023-03-21T08:48:29;6.03;;;2.70;;
14326;SDS011;7247;53.330;-1.180;2023-03-21T08:50:55;5.97;;;2.67;;
14326;SDS011;7247;53.330;-1.180;2023-03-21T08:53:26;3.90;;;2.30;;
14326;SDS011;7247;53.330;-1.180;2023-03-21T08:55:53;4.97;;;2.27;;
14326;SDS011;7247;53.330;-1.180;2023-03-21T08:58:19;4.97;;;2.10;;
14326;SDS011;7247;53.330;-1.180;2023-03-21T09:00:46;7.20;;;2.70;;
14326;SDS011;7247;53.330;-1.180;2023-03-21T09:03:12;9.00;;;2.20;;
14326;SDS011;7247;53.330;-1.180;2023-03-21T09:05:39;5.67;;;2.47;;
14326;SDS011;7247;53.330;-1.180;2023-03-21T09:08:05;4.57;;;1.97;;
14326;SDS011;7247;53.330;-1.180;2023-03-21T09:10:33;4.63;;;2.07;;
14326;SDS011;7247;53.330;-1.180;2023-03-21T09:12:59;3.67;;;2.03;;
14326;SDS011;7247;53.330;-1.180;2023-03-21T09:15:26;7.80;;;2.20;;
14326;SDS011;7247;53.330;-1.180;2023-03-21T09:17:54;6.53;;;2.20;;
14326;SDS011;7247;53.330;-1.180;2023-03-21T09:20:23;6.33;;;2.20;;
14326;SDS011;7247;53.330;-1.180;2023-03-21T09:22:54;7.13;;;2.30;;
14326;SDS011;7247;53.330;-1.180;2023-03-21T09:25:21;5.00;;;2.10;;
14326;SDS011;7247;53.330;-1.180;2023-03-21T09:27:50;6.57;;;2.23;;
14326;SDS011;7247;53.330;-1.180;2023-03-21T09:30:17;6.00;;;1.90;;
14326;SDS011;7247;53.330;-1.180;2023-03-21T09:32:44;6.13;;;1.97;;
14326;SDS011;7247;53.330;-1.180;2023-03-21T09:35:13;5.60;;;2.10;;
14326;SDS011;7247;53.330;-1.180;2023-03-21T09:37:40;4.13;;;2.00;;
14326;SDS011;7247;53.330;-1.180;2023-03-21T09:40:09;8.30;;;2.93;;
14326;SDS011;7247;53.330;-1.180;2023-03-21T09:42:41;9.20;;;2.20;;
14326;SDS011;7247;53.330;-1.180;2023-03-21T09:45:12;7.60;;;2.03;;
14326;SDS011;7247;53.330;-1.180;2023-03-21T09:47:41;6.93;;;2.30;;
14326;SDS011;7247;53.330;-1.180;2023-03-21T09:50:17;8.93;;;2.40;;
14326;SDS011;7247;53.330;-1.180;2023-03-21T09:52:46;7.60;;;2.13;;
14326;SDS011;7247;53.330;-1.180;2023-03-21T09:55:16;4.40;;;2.00;;
14326;SDS011;7247;53.330;-1.180;2023-03-21T09:57:44;5.03;;;1.80;;
14326;SDS011;7247;53.330;-1.180;2023-03-21T10:00:14;6.83;;;2.27;;
14326;SDS011;7247;53.330;-1.180;2023-03-21T10:02:49;7.63;;;2.23;;
14326;SDS011;7247;53.330;-1.180;2023-03-21T10:05:18;5.77;;;2.03;;
14326;SDS011;7247;53.330;-1.180;2023-03-21T10:07:49;6.40;;;2.67;;
14326;SDS011;7247;53.330;-1.180;2023-03-21T10:10:18;6.57;;;2.10;;
14326;SDS011;7247;53.330;-1.180;2023-03-21T10:12:44;7.27;;;2.07;;
14326;SDS011;7247;53.330;-1.180;2023-03-21T10:15:16;8.33;;;2.30;;
14326;SDS011;7247;53.330;-1.180;2023-03-21T10:17:43;4.30;;;1.73;;
14326;SDS011;7247;53.330;-1.180;2023-03-21T10:20:13;5.43;;;2.03;;
14326;SDS011;7247;53.330;-1.180;2023-03-21T10:22:40;6.33;;;2.23;;
14326;SDS011;7247;53.330;-1.180;2023-03-21T10:25:09;4.97;;;1.70;;
14326;SDS011;7247;53.330;-1.180;2023-03-21T10:27:38;5.30;;;1.80;;
14326;SDS011;7247;53.330;-1.180;2023-03-21T10:30:05;6.03;;;1.87;;
14326;SDS011;7247;53.330;-1.180;2023-03-21T10:32:33;5.23;;;1.80;;
14326;SDS011;7247;53.330;-1.180;2023-03-21T10:35:00;4.73;;;1.80;;
14326;SDS011;7247;53.330;-1.180;2023-03-21T10:37:28;3.70;;;1.63;;
14326;SDS011;7247;53.330;-1.180;2023-03-21T10:39:54;3.83;;;1.63;;
14326;SDS011;7247;53.330;-1.180;2023-03-21T10:42:21;4.33;;;1.60;;
14326;SDS011;7247;53.330;-1.180;2023-03-21T10:44:49;4.00;;;1.40;;
14326;SDS011;7247;53.330;-1.180;2023-03-21T10:47:18;4.20;;;1.43;;
14326;SDS011;7247;53.330;-1.180;2023-03-21T10:49:46;3.40;;;1.60;;
14326;SDS011;7247;53.330;-1.180;2023-03-21T10:52:14;2.53;;;1.50;;
14326;SDS011;7247;53.330;-1.180;2023-03-21T10:54:42;4.87;;;1.77;;
14326;SDS011;7247;53.330;-1.180;2023-03-21T10:57:11;5.93;;;1.90;;
14326;SDS011;7247;53.330;-1.180;2023-03-21T10:59:38;4.07;;;1.60;;
14326;SDS011;7247;53.330;-1.180;2023-03-21T11:02:06;3.73;;;1.27;;
14326;SDS011;7247;53.330;-1.180;2023-03-21T11:04:36;3.27;;;1.53;;
14326;SDS011;7247;53.330;-1.180;2023-03-21T11:07:05;5.23;;;1.40;;
14326;SDS011;7247;53.330;-1.180;2023-03-21T11:09:42;2.80;;;1.40;;
14326;SDS011;7247;53.330;-1.180;2023-03-21T11:12:09;4.23;;;1.50;;
14326;SDS011;7247;53.330;-1.180;2023-03-21T11:14:37;3.90;;;1.40;;
14326;SDS011;7247;53.330;-1.180;2023-03-21T11:17:16;3.93;;;1.20;;
14326;SDS011;7247;53.330;-1.180;2023-03-21T11:19:46;3.90;;;1.33;;
14326;SDS011;7247;53.330;-1.180;2023-03-21T11:22:14;4.60;;;1.23;;
14326;SDS011;7247;53.330;-1.180;2023-03-21T11:24:40;2.70;;;1.00;;
14326;SDS011;7247;53.330;-1.180;2023-03-21T11:27:07;3.93;;;1.17;;
14326;SDS011;7247;53.330;-1.180;2023-03-21T11:29:34;4.07;;;1.00;;
14326;SDS011;7247;53.330;-1.180;2023-03-21T11:32:08;3.33;;;1.30;;
14326;SDS011;7247;53.330;-1.180;2023-03-21T11:34:38;2.90;;;0.97;;
14326;SDS011;7247;53.330;-1.180;2023-03-21T11:37:15;2.23;;;0.70;;
14326;SDS011;7247;53.330;-1.180;2023-03-21T11:39:44;3.90;;;1.40;;
14326;SDS011;7247;53.330;-1.180;2023-03-21T11:42:26;2.13;;;1.10;;
14326;SDS011;7247;53.330;-1.180;2023-03-21T11:44:57;1.40;;;0.93;;
14326;SDS011;7247;53.330;-1.180;2023-03-21T11:47:25;3.70;;;1.10;;
14326;SDS011;7247;53.330;-1.180;2023-03-21T11:49:52;3.07;;;1.03;;
14326;SDS011;7247;53.330;-1.180;2023-03-21T11:52:22;2.07;;;1.10;;
14326;SDS011;7247;53.330;-1.180;2023-03-21T11:57:36;2.47;;;1.10;;
14326;SDS011;7247;53.330;-1.180;2023-03-21T12:00:05;1.93;;;0.80;;
14326;SDS011;7247;53.330;-1.180;2023-03-21T12:02:54;1.53;;;0.90;;
14326;SDS011;7247;53.330;-1.180;2023-03-21T12:05:23;2.70;;;1.07;;
14326;SDS011;7247;53.330;-1.180;2023-03-21T12:07:52;3.00;;;1.13;;
14326;SDS011;7247;53.330;-1.180;2023-03-21T12:10:34;3.63;;;1.10;;
14326;SDS011;7247;53.330;-1.180;2023-03-21T12:15:47;2.30;;;1.03;;
14326;SDS011;7247;53.330;-1.180;2023-03-21T12:18:17;1.63;;;1.00;;
14326;SDS011;7247;53.330;-1.180;2023-03-21T12:20:48;2.73;;;1.20;;
14326;SDS011;7247;53.330;-1.180;2023-03-21T12:23:22;2.70;;;1.20;;
14326;SDS011;7247;53.330;-1.180;2023-03-21T12:25:53;3.63;;;1.40;;
14326;SDS011;7247;53.330;-1.180;2023-03-21T12:28:23;2.67;;;1.10;;
14326;SDS011;7247;53.330;-1.180;2023-03-21T12:30:56;4.53;;;1.50;;
14326;SDS011;7247;53.330;-1.180;2023-03-21T12:33:28;5.27;;;1.30;;
14326;SDS011;7247;53.330;-1.180;2023-03-21T12:36:01;2.77;;;1.43;;
14326;SDS011;7247;53.330;-1.180;2023-03-21T12:38:32;4.47;;;1.10;;
14326;SDS011;7247;53.330;-1.180;2023-03-21T12:41:05;4.20;;;1.30;;
14326;SDS011;7247;53.330;-1.180;2023-03-21T12:43:36;4.63;;;1.20;;
14326;SDS011;7247;53.330;-1.180;2023-03-21T12:46:09;3.07;;;1.30;;
14326;SDS011;7247;53.330;-1.180;2023-03-21T12:48:39;3.07;;;1.00;;
14326;SDS011;7247;53.330;-1.180;2023-03-21T12:51:07;3.90;;;1.40;;
14326;SDS011;7247;53.330;-1.180;2023-03-21T12:53:38;2.83;;;1.10;;
14326;SDS011;7247;53.330;-1.180;2023-03-21T12:56:08;6.93;;;1.30;;
14326;SDS011;7247;53.330;-1.180;2023-03-21T12:58:41;2.93;;;1.20;;
14326;SDS011;7247;53.330;-1.180;2023-03-21T13:01:09;1.80;;;0.93;;
14326;SDS011;7247;53.330;-1.180;2023-03-21T13:03:37;3.93;;;1.17;;
14326;SDS011;7247;53.330;-1.180;2023-03-21T13:06:06;3.87;;;1.20;;
14326;SDS011;7247;53.330;-1.180;2023-03-21T13:08:36;3.87;;;1.50;;
14326;SDS011;7247;53.330;-1.180;2023-03-21T13:11:02;3.57;;;1.40;;
14326;SDS011;7247;53.330;-1.180;2023-03-21T13:13:30;2.97;;;1.10;;
14326;SDS011;7247;53.330;-1.180;2023-03-21T13:16:01;8.03;;;1.50;;
14326;SDS011;7247;53.330;-1.180;2023-03-21T13:21:16;4.27;;;1.50;;
14326;SDS011;7247;53.330;-1.180;2023-03-21T13:23:54;3.60;;;1.17;;
14326;SDS011;7247;53.330;-1.180;2023-03-21T13:26:30;4.57;;;1.50;;
14326;SDS011;7247;53.330;-1.180;2023-03-21T13:28:56;5.13;;;1.63;;
14326;SDS011;7247;53.330;-1.180;2023-03-21T13:31:24;4.60;;;1.70;;
14326;SDS011;7247;53.330;-1.180;2023-03-21T13:33:51;2.20;;;1.10;;
14326;SDS011;7247;53.330;-1.180;2023-03-21T13:36:22;4.70;;;1.50;;
14326;SDS011;7247;53.330;-1.180;2023-03-21T13:38:50;2.20;;;1.10;;
14326;SDS011;7247;53.330;-1.180;2023-03-21T13:41:18;4.80;;;1.20;;
14326;SDS011;7247;53.330;-1.180;2023-03-21T13:43:50;3.83;;;1.30;;
14326;SDS011;7247;53.330;-1.180;2023-03-21T13:48:59;3.63;;;1.30;;
14326;SDS011;7247;53.330;-1.180;2023-03-21T13:51:43;2.87;;;1.10;;
14326;SDS011;7247;53.330;-1.180;2023-03-21T13:54:15;3.27;;;1.40;;
14326;SDS011;7247;53.330;-1.180;2023-03-21T13:56:47;5.30;;;1.30;;
14326;SDS011;7247;53.330;-1.180;2023-03-21T13:59:16;2.83;;;1.10;;
14326;SDS011;7247;53.330;-1.180;2023-03-21T14:01:56;4.10;;;1.07;;
14326;SDS011;7247;53.330;-1.180;2023-03-21T14:04:24;4.43;;;1.40;;
14326;SDS011;7247;53.330;-1.180;2023-03-21T14:06:54;3.60;;;1.27;;
14326;SDS011;7247;53.330;-1.180;2023-03-21T14:09:24;4.07;;;1.20;;
14326;SDS011;7247;53.330;-1.180;2023-03-21T14:11:51;4.30;;;1.30;;
14326;SDS011;7247;53.330;-1.180;2023-03-21T14:14:19;2.70;;;1.30;;
14326;SDS011;7247;53.330;-1.180;2023-03-21T14:16:45;3.97;;;1.30;;
14326;SDS011;7247;53.330;-1.180;2023-03-21T14:19:12;5.57;;;1.33;;
14326;SDS011;7247;53.330;-1.180;2023-03-21T14:21:44;3.40;;;1.10;;
14326;SDS011;7247;53.330;-1.180;2023-03-21T14:24:13;8.13;;;1.67;;
14326;SDS011;7247;53.330;-1.180;2023-03-21T14:26:41;3.87;;;1.20;;
14326;SDS011;7247;53.330;-1.180;2023-03-21T14:29:09;3.60;;;1.20;;
14326;SDS011;7247;53.330;-1.180;2023-03-21T14:31:40;3.30;;;1.20;;
14326;SDS011;7247;53.330;-1.180;2023-03-21T14:34:07;1.63;;;0.80;;
14326;SDS011;7247;53.330;-1.180;2023-03-21T14:36:37;2.23;;;1.00;;
14326;SDS011;7247;53.330;-1.180;2023-03-21T14:39:05;1.90;;;0.90;;
14326;SDS011;7247;53.330;-1.180;2023-03-21T14:41:33;3.13;;;1.23;;
14326;SDS011;7247;53.330;-1.180;2023-03-21T14:44:13;2.77;;;1.13;;
14326;SDS011;7247;53.330;-1.180;2023-03-21T14:46:40;1.67;;;0.90;;
14326;SDS011;7247;53.330;-1.180;2023-03-21T14:49:13;3.90;;;1.50;;
14326;SDS011;7247;53.330;-1.180;2023-03-21T14:51:39;2.60;;;0.93;;
14326;SDS011;7247;53.330;-1.180;2023-03-21T14:54:08;3.93;;;1.30;;
14326;SDS011;7247;53.330;-1.180;2023-03-21T14:56:38;3.80;;;1.50;;
14326;SDS011;7247;53.330;-1.180;2023-03-21T14:59:04;2.40;;;1.20;;
14326;SDS011;7247;53.330;-1.180;2023-03-21T15:01:33;3.33;;;1.30;;
14326;SDS011;7247;53.330;-1.180;2023-03-21T15:04:00;2.27;;;1.40;;
14326;SDS011;7247;53.330;-1.180;2023-03-21T15:06:28;1.97;;;1.07;;